.
WxDataArchive / Data Records for 2007-12-29
2007-12-28 December 2007 2007-12-30

Data Records for Saturday, 29 December 2007

Time	Temp	Chill	HIndex	Humid	Dewpt	 Wind 	HiWind	WindDir	Rain 	Barom 
-----	----	-----	------	-----	-----	------	------	-------	-----	----- 
00:00	34.3	29.0	34.3	78	28.2	6	11	270	0.00	29.870 
00:05	34.3	28.3	34.3	77	27.9	7	20	270	0.00	29.870 
00:10	34.1	28.7	34.1	78	28.0	6	12	270	0.00	29.872 
00:15	34.1	29.5	34.1	78	28.0	5	14	270	0.00	29.871 
00:20	34.0	29.4	34.0	78	27.9	5	12	270	0.00	29.877 
00:25	34.0	29.4	34.0	78	27.9	5	10	270	0.00	29.883 
00:30	33.8	30.2	33.8	79	28.0	4	13	270	0.00	29.883 
00:35	33.8	28.4	33.8	79	28.0	6	15	248	0.00	29.880 
00:40	33.8	29.2	33.8	79	28.0	5	15	270	0.00	29.880 
00:45	33.7	30.0	33.7	79	27.9	4	12	270	0.00	29.884 
00:50	33.7	33.7	33.7	80	28.2	3	6	270	0.00	29.887 
00:55	33.7	29.1	33.7	80	28.2	5	15	270	0.00	29.895 
01:00	33.7	29.1	33.7	79	27.9	5	11	270	0.00	29.900 
01:05	33.5	29.8	33.5	79	27.7	4	9	270	0.00	29.901 
01:10	33.5	29.8	33.5	80	28.0	4	9	270	0.00	29.901 
01:15	33.5	29.8	33.5	81	28.3	4	11	248	0.00	29.902 
01:20	33.5	29.8	33.5	81	28.3	4	9	270	0.00	29.904 
01:25	33.4	29.7	33.4	81	28.2	4	13	270	0.00	29.904 
01:30	33.4	28.7	33.4	80	27.9	5	13	248	0.00	29.907 
01:35	33.4	29.7	33.4	80	27.9	4	14	270	0.00	29.907 
01:40	33.4	29.7	33.4	80	27.9	4	12	270	0.00	29.910 
01:45	33.4	29.7	33.4	79	27.6	4	11	270	0.00	29.914 
01:50	33.4	33.4	33.4	80	27.9	3	7	270	0.00	29.914 
01:55	33.4	29.7	33.4	79	27.6	4	14	292	0.00	29.917 
02:00	33.4	28.7	33.4	78	27.3	5	14	270	0.00	29.918 
02:05	33.4	29.7	33.4	79	27.6	4	10	270	0.00	29.919 
02:10	33.4	29.7	33.4	80	27.9	4	13	270	0.00	29.922 
02:15	33.4	33.4	33.4	80	27.9	3	10	270	0.00	29.922 
02:20	33.2	33.2	33.2	80	27.7	3	7	270	0.00	29.923 
02:25	33.2	33.2	33.2	81	28.0	3	9	270	0.00	29.926 
02:30	33.2	33.2	33.2	81	28.0	2	6	248	0.00	29.930 
02:35	33.1	29.3	33.1	81	27.9	4	8	248	0.00	29.932 
02:40	33.1	33.1	33.1	81	27.9	2	10	248	0.00	29.932 
02:45	33.1	33.1	33.1	81	27.9	3	9	270	0.00	29.935 
02:50	33.1	33.1	33.1	80	27.6	3	10	270	0.00	29.936 
02:55	33.1	33.1	33.1	81	27.9	2	5	248	0.00	29.942 
03:00	33.1	33.1	33.1	81	27.9	3	6	248	0.00	29.942 
03:05	33.1	29.3	33.1	81	27.9	4	11	248	0.00	29.944 
03:10	32.9	29.1	32.9	78	26.8	4	10	270	0.00	29.945 
03:15	32.9	32.9	32.9	80	27.4	3	6	270	0.00	29.947 
03:20	32.9	29.1	32.9	80	27.4	4	8	270	0.00	29.948 
03:25	32.8	29.0	32.8	80	27.3	4	9	270	0.00	29.950 
03:30	32.7	28.9	32.7	78	26.6	4	11	270	0.00	29.955 
03:35	32.5	28.7	32.5	78	26.4	4	10	270	0.00	29.952 
03:40	32.5	28.7	32.5	78	26.4	4	11	270	0.00	29.956 
03:45	32.4	28.5	32.4	78	26.3	4	10	270	0.00	29.961 
03:50	32.4	28.5	32.4	78	26.3	4	12	270	0.00	29.963 
03:55	32.2	32.2	32.2	79	26.4	2	7	270	0.00	29.963 
04:00	32.2	32.2	32.2	79	26.4	3	11	270	0.00	29.965 
04:05	32.2	28.3	32.2	79	26.4	4	10	270	0.00	29.963 
04:10	32.1	32.1	32.1	79	26.3	3	10	270	0.00	29.966 
04:15	32.1	32.1	32.1	80	26.6	2	6	270	0.00	29.966 
04:20	32.1	28.2	32.1	79	26.3	4	12	270	0.00	29.966 
04:25	32.1	32.1	32.1	80	26.6	3	9	270	0.00	29.974 
04:30	32.1	28.2	32.1	80	26.6	4	10	270	0.00	29.974 
04:35	31.9	28.0	31.9	80	26.4	4	10	270	0.00	29.973 
04:40	31.9	27.0	31.9	79	26.1	5	14	270	0.00	29.977 
04:45	31.9	31.9	31.9	79	26.1	3	8	270	0.00	29.978 
04:50	31.8	31.8	31.8	79	26.0	2	5	270	0.00	29.977 
04:55	31.8	27.8	31.8	77	25.4	4	10	248	0.00	29.978 
05:00	31.8	31.8	31.8	77	25.4	3	7	270	0.00	29.978 
05:05	31.8	26.8	31.8	77	25.4	5	11	270	0.00	29.978 
05:10	31.6	27.6	31.6	77	25.2	4	12	270	0.00	29.981 
05:15	31.6	27.6	31.6	78	25.5	4	9	270	0.00	29.981 
05:20	31.5	31.5	31.5	79	25.8	3	9	270	0.00	29.984 
05:25	31.5	27.5	31.5	79	25.8	4	10	248	0.00	29.987 
05:30	31.3	31.3	31.3	80	25.9	3	9	248	0.00	29.989 
05:35	31.3	31.3	31.3	79	25.6	3	12	248	0.00	29.988 
05:40	31.3	27.3	31.3	79	25.6	4	11	270	0.00	29.986 
05:45	31.2	31.2	31.2	79	25.5	3	11	248	0.00	29.982 
05:50	31.2	27.2	31.2	79	25.5	4	10	248	0.00	29.987 
05:55	31.0	26.9	31.0	78	25.0	4	11	248	0.00	29.984 
06:00	31.0	31.0	31.0	78	25.0	3	10	270	0.00	29.991 
06:05	31.0	26.9	31.0	78	25.0	4	9	248	0.00	29.993 
06:10	30.9	26.8	30.9	78	24.9	4	11	248	0.00	29.998 
06:15	30.9	26.8	30.9	78	24.9	4	11	248	0.00	29.999 
06:20	30.9	30.9	30.9	78	24.9	2	7	248	0.00	29.996 
06:25	30.7	30.7	30.7	78	24.7	2	6	248	0.00	29.996 
06:30	30.7	30.7	30.7	79	25.0	2	5	248	0.00	30.003 
06:35	30.7	26.6	30.7	78	24.7	4	9	248	0.00	30.008 
06:40	30.7	26.6	30.7	78	24.7	4	10	248	0.00	30.009 
06:45	30.7	30.7	30.7	77	24.4	3	11	270	0.00	30.014 
06:50	30.6	26.5	30.6	76	24.0	4	11	270	0.00	30.015 
06:55	30.6	30.6	30.6	76	24.0	3	7	248	0.00	30.017 
07:00	30.6	30.6	30.6	76	24.0	2	5	270	0.00	30.019 
07:05	30.4	30.4	30.4	74	23.1	3	8	248	0.00	30.020 
07:10	30.4	30.4	30.4	73	22.8	3	10	248	0.00	30.019 
07:15	30.4	26.2	30.4	72	22.5	4	11	270	0.00	30.021 
07:20	30.4	30.4	30.4	72	22.5	2	6	270	0.00	30.019 
07:25	30.3	30.3	30.3	72	22.4	2	7	248	0.00	30.021 
07:30	30.3	30.3	30.3	73	22.7	3	6	248	0.00	30.023 
07:35	30.3	30.3	30.3	72	22.4	3	7	270	0.00	30.024 
07:40	30.1	30.1	30.1	72	22.2	3	9	248	0.00	30.026 
07:45	30.1	30.1	30.1	72	22.2	3	7	248	0.00	30.031 
07:50	30.0	24.7	30.0	71	21.8	5	13	270	0.00	30.031 
07:55	30.0	25.8	30.0	72	22.1	4	12	270	0.00	30.035 
08:00	30.0	25.8	30.0	72	22.1	4	13	248	0.00	30.039 
08:05	30.0	30.0	30.0	72	22.1	3	12	248	0.00	30.041 
08:10	29.8	29.8	29.8	72	21.9	3	9	270	0.00	30.041 
08:15	29.8	25.5	29.8	72	21.9	4	14	248	0.00	30.042 
08:20	29.7	25.4	29.7	73	22.1	4	9	248	0.00	30.042 
08:25	29.7	29.7	29.7	73	22.1	3	7	248	0.00	30.042 
08:30	29.5	29.5	29.5	74	22.3	3	11	270	0.00	30.043 
08:35	29.4	25.1	29.4	74	22.2	4	14	270	0.00	30.043 
08:40	29.3	29.3	29.3	75	22.4	2	6	270	0.00	30.042 
08:45	29.3	29.3	29.3	75	22.4	2	7	270	0.00	30.041 
08:50	29.1	29.1	29.1	75	22.2	2	8	270	0.00	30.045 
08:55	29.1	29.1	29.1	75	22.2	3	7	248	0.00	30.050 
09:00	29.1	29.1	29.1	75	22.2	2	6	270	0.00	30.052 
09:05	29.0	29.0	29.0	74	21.8	3	10	270	0.00	30.051 
09:10	28.8	28.8	28.8	74	21.6	2	6	270	0.00	30.052 
09:15	28.8	28.8	28.8	74	21.6	2	9	270	0.00	30.057 
09:20	28.8	28.8	28.8	74	21.6	2	7	270	0.00	30.060 
09:25	28.7	28.7	28.7	74	21.5	3	10	270	0.00	30.061 
09:30	28.7	28.7	28.7	74	21.5	3	10	270	0.00	30.064 
09:35	28.7	28.7	28.7	74	21.5	3	10	270	0.00	30.071 
09:40	28.7	28.7	28.7	74	21.5	2	5	270	0.00	30.071 
09:45	28.7	28.7	28.7	75	21.8	2	5	270	0.00	30.069 
09:50	28.7	28.7	28.7	73	21.2	3	6	270	0.00	30.065 
09:55	28.7	28.7	28.7	74	21.5	2	4	270	0.00	30.067 
10:00	28.5	28.5	28.5	73	21.0	3	5	270	0.00	30.071 
10:05	28.5	28.5	28.5	74	21.3	2	5	270	0.00	30.070 
10:10	28.7	28.7	28.7	73	21.2	2	6	248	0.00	30.073 
10:15	28.5	28.5	28.5	73	21.0	2	5	270	0.00	30.078 
10:20	28.4	28.4	28.4	73	20.9	3	6	270	0.00	30.084 
10:25	28.4	28.4	28.4	73	20.9	2	4	270	0.00	30.088 
10:30	28.4	28.4	28.4	73	20.9	2	6	270	0.00	30.085 
10:35	28.4	28.4	28.4	73	20.9	3	9	270	0.00	30.083 
10:40	28.2	28.2	28.2	73	20.7	2	4	270	0.00	30.088 
10:45	28.4	28.4	28.4	73	20.9	3	9	248	0.00	30.092 
10:50	28.2	28.2	28.2	73	20.7	2	6	248	0.00	30.092 
10:55	28.1	28.1	28.1	73	20.6	3	9	270	0.00	30.093 
11:00	28.1	28.1	28.1	73	20.6	1	4	292	0.00	30.093 
11:05	28.1	28.1	28.1	73	20.6	1	4	270	0.00	30.092 
11:10	28.1	28.1	28.1	73	20.6	1	5	248	0.00	30.092 
11:15	27.9	27.9	27.9	73	20.4	1	5	315	0.00	30.093 
11:20	28.1	28.1	28.1	73	20.6	1	3	248	0.00	30.086 
11:25	28.2	28.2	28.2	74	21.0	1	3	225	0.00	30.086 
11:30	28.4	28.4	28.4	74	21.2	1	4	248	0.00	30.091 
11:35	28.4	28.4	28.4	74	21.2	2	6	248	0.00	30.091 
11:40	28.5	28.5	28.5	74	21.3	1	3	248	0.00	30.085 
11:45	28.5	28.5	28.5	75	21.6	1	5	248	0.00	30.083 
11:50	28.5	28.5	28.5	74	21.3	1	4	315	0.00	30.080 
11:55	28.5	28.5	28.5	75	21.6	1	3	248	0.00	30.080 
12:00	28.5	28.5	28.5	75	21.6	1	4	248	0.00	30.079 
12:05	28.4	28.4	28.4	76	21.8	1	5	315	0.00	30.074 
12:10	28.4	28.4	28.4	76	21.8	1	3	338	0.00	30.077 
12:15	28.5	28.5	28.5	76	21.9	1	3	270	0.00	30.079 
12:20	28.5	28.5	28.5	76	21.9	0	2	270	0.00	30.081 
12:25	28.5	28.5	28.5	76	21.9	0	3	248	0.00	30.083 
12:30	28.7	28.7	28.7	75	21.8	1	3	248	0.00	30.081 
12:35	28.7	28.7	28.7	76	22.1	0	3	248	0.00	30.078 
12:40	28.8	28.8	28.8	75	21.9	1	4	248	0.00	30.071 
12:45	29.0	29.0	29.0	76	22.4	1	3	248	0.00	30.064 
12:50	29.0	29.0	29.0	75	22.1	1	4	270	0.00	30.063 
12:55	29.0	29.0	29.0	75	22.1	1	4	248	0.00	30.061 
13:00	29.0	29.0	29.0	74	21.8	2	6	248	0.00	30.060 
13:05	28.8	28.8	28.8	75	21.9	1	4	248	0.00	30.051 
13:10	29.0	29.0	29.0	75	22.1	1	4	248	0.00	30.051 
13:15	29.0	29.0	29.0	75	22.1	1	4	248	0.00	30.053 
13:20	29.0	29.0	29.0	75	22.1	1	5	248	0.00	30.052 
13:25	28.8	28.8	28.8	75	21.9	2	6	248	0.00	30.059 
13:30	28.7	28.7	28.7	74	21.5	2	7	248	0.00	30.063 
13:35	28.7	28.7	28.7	74	21.5	2	6	248	0.00	30.063 
13:40	28.8	28.8	28.8	74	21.6	2	4	248	0.00	30.064 
13:45	28.8	28.8	28.8	74	21.6	2	5	248	0.00	30.063 
13:50	29.0	29.0	29.0	75	22.1	1	4	248	0.00	30.064 
13:55	28.8	28.8	28.8	74	21.6	2	10	248	0.00	30.065 
14:00	28.7	28.7	28.7	74	21.5	3	7	248	0.00	30.069 
14:05	28.5	28.5	28.5	73	21.0	3	7	248	0.00	30.069 
14:10	28.5	28.5	28.5	73	21.0	2	6	248	0.00	30.066 
14:15	28.4	28.4	28.4	74	21.2	2	6	248	0.00	30.064 
14:20	28.5	28.5	28.5	74	21.3	1	4	248	0.00	30.058 
14:25	28.7	28.7	28.7	74	21.5	1	5	248	0.00	30.057 
14:30	28.7	28.7	28.7	74	21.5	2	6	248	0.00	30.051 
14:35	28.5	28.5	28.5	74	21.3	1	5	225	0.00	30.048 
14:40	28.5	28.5	28.5	74	21.3	1	4	292	0.00	30.048 
14:45	28.5	28.5	28.5	73	21.0	2	5	248	0.00	30.054 
14:50	28.5	28.5	28.5	74	21.3	1	4	248	0.00	30.063 
14:55	28.5	28.5	28.5	75	21.6	1	4	270	0.00	30.072 
15:00	28.5	28.5	28.5	74	21.3	2	7	248	0.00	30.077 
15:05	28.5	28.5	28.5	73	21.0	1	4	248	0.00	30.082 
15:10	28.5	28.5	28.5	73	21.0	1	6	248	0.00	30.081 
15:15	28.5	28.5	28.5	74	21.3	1	3	248	0.00	30.080 
15:20	28.5	28.5	28.5	74	21.3	2	6	248	0.00	30.084 
15:25	28.4	28.4	28.4	73	20.9	2	4	248	0.00	30.087 
15:30	28.2	28.2	28.2	73	20.7	1	4	248	0.00	30.083 
15:35	28.2	28.2	28.2	73	20.7	3	9	248	0.00	30.088 
15:40	28.4	28.4	28.4	73	20.9	1	5	248	0.00	30.083 
15:45	28.4	28.4	28.4	73	20.9	2	6	248	0.00	30.081 
15:50	28.4	28.4	28.4	74	21.2	1	3	270	0.00	30.081 
15:55	28.4	28.4	28.4	74	21.2	0	2	270	0.00	30.084 
16:00	28.4	28.4	28.4	75	21.5	1	6	270	0.00	30.083 
16:05	28.4	28.4	28.4	74	21.2	2	7	248	0.00	30.086 
16:10	28.4	28.4	28.4	75	21.5	1	5	248	0.00	30.091 
16:15	28.4	28.4	28.4	76	21.8	2	5	248	0.00	30.090 
16:20	28.4	28.4	28.4	76	21.8	1	5	248	0.00	30.087 
16:25	28.2	28.2	28.2	76	21.6	1	6	270	0.00	30.094 
16:30	28.2	28.2	28.2	77	21.9	1	3	248	0.00	30.095 
16:35	28.2	28.2	28.2	77	21.9	1	4	248	0.00	30.096 
16:40	28.1	28.1	28.1	75	21.2	2	8	248	0.00	30.096 
16:45	28.1	28.1	28.1	75	21.2	1	5	248	0.00	30.095 
16:50	27.9	27.9	27.9	75	21.0	0	2	248	0.00	30.097 
16:55	27.9	27.9	27.9	74	20.7	2	6	248	0.00	30.100 
17:00	27.9	27.9	27.9	74	20.7	1	5	248	0.00	30.099 
17:05	27.9	27.9	27.9	74	20.7	1	4	248	0.00	30.100 
17:10	27.9	27.9	27.9	75	21.0	0	3	248	0.00	30.102 
17:15	27.9	27.9	27.9	74	20.7	1	4	248	0.00	30.102 
17:20	27.8	27.8	27.8	74	20.6	1	5	248	0.00	30.102 
17:25	27.8	27.8	27.8	74	20.6	1	4	248	0.00	30.099 
17:30	27.8	27.8	27.8	74	20.6	2	5	248	0.00	30.099 
17:35	27.8	27.8	27.8	74	20.6	1	4	248	0.00	30.100 
17:40	27.8	27.8	27.8	75	20.9	1	3	248	0.00	30.099 
17:45	27.8	27.8	27.8	75	20.9	1	2	248	0.00	30.098 
17:50	27.8	27.8	27.8	75	20.9	0	2	248	0.00	30.097 
17:55	27.8	27.8	27.8	75	20.9	0	1	248	0.00	30.095 
18:00	27.8	27.8	27.8	75	20.9	0	1	248	0.00	30.094 
18:05	27.8	27.8	27.8	75	20.9	0	1	248	0.00	30.095 
18:10	27.8	27.8	27.8	75	20.9	0	1	315	0.00	30.095 
18:15	27.8	27.8	27.8	76	21.2	0	1	315	0.00	30.097 
18:20	27.8	27.8	27.8	76	21.2	0	1	315	0.00	30.097 
18:25	27.8	27.8	27.8	76	21.2	0	2	270	0.00	30.096 
18:30	27.8	27.8	27.8	76	21.2	0	2	270	0.00	30.096 
18:35	27.8	27.8	27.8	76	21.2	0	3	270	0.00	30.097 
18:40	27.8	27.8	27.8	76	21.2	0	1	248	0.00	30.098 
18:45	27.8	27.8	27.8	76	21.2	1	3	248	0.00	30.100 
18:50	27.8	27.8	27.8	75	20.9	1	4	248	0.00	30.105 
18:55	27.8	27.8	27.8	76	21.2	1	3	248	0.00	30.107 
19:00	27.8	27.8	27.8	75	20.9	1	4	248	0.00	30.108 
19:05	27.8	27.8	27.8	75	20.9	0	3	225	0.00	30.108 
19:10	27.9	27.9	27.9	75	21.0	1	4	248	0.00	30.111 
19:15	27.8	27.8	27.8	75	20.9	1	2	248	0.00	30.113 
19:20	27.8	27.8	27.8	75	20.9	0	3	248	0.00	30.117 
19:25	27.9	27.9	27.9	75	21.0	1	3	248	0.00	30.122 
19:30	27.9	27.9	27.9	75	21.0	1	3	225	0.00	30.126 
19:35	27.9	27.9	27.9	75	21.0	0	3	248	0.00	30.129 
19:40	28.1	28.1	28.1	75	21.2	1	5	248	0.00	30.132 
19:45	28.1	28.1	28.1	75	21.2	1	6	248	0.00	30.140 
19:50	28.1	28.1	28.1	75	21.2	2	5	248	0.00	30.142 
19:55	28.1	28.1	28.1	75	21.2	2	6	248	0.00	30.145 
20:00	28.2	28.2	28.2	75	21.3	1	4	248	0.00	30.145 
20:05	28.2	28.2	28.2	75	21.3	1	5	248	0.00	30.148 
20:10	28.2	28.2	28.2	75	21.3	2	6	248	0.00	30.147 
20:15	28.1	28.1	28.1	75	21.2	3	5	248	0.00	30.147 
20:20	28.1	28.1	28.1	75	21.2	2	5	248	0.00	30.149 
20:25	27.9	27.9	27.9	75	21.0	2	6	248	0.00	30.148 
20:30	27.8	27.8	27.8	75	20.9	0	3	248	0.00	30.148 
20:35	27.8	27.8	27.8	75	20.9	1	3	248	0.00	30.147 
20:40	27.6	27.6	27.6	75	20.7	1	3	248	0.00	30.146 
20:45	27.6	27.6	27.6	75	20.7	1	2	270	0.00	30.142 
20:50	27.6	27.6	27.6	75	20.7	1	3	270	0.00	30.141 
20:55	27.6	27.6	27.6	75	20.7	1	4	248	0.00	30.143 
21:00	27.5	27.5	27.5	75	20.6	1	2	248	0.00	30.144 
21:05	27.6	27.6	27.6	76	21.0	0	3	248	0.00	30.143 
21:10	27.6	27.6	27.6	76	21.0	1	3	248	0.00	30.142 
21:15	27.6	27.6	27.6	76	21.0	1	3	248	0.00	30.145 
21:20	27.6	27.6	27.6	76	21.0	0	4	270	0.00	30.144 
21:25	27.6	27.6	27.6	76	21.0	1	5	248	0.00	30.143 
21:30	27.6	27.6	27.6	76	21.0	1	4	248	0.00	30.142 
21:35	27.6	27.6	27.6	76	21.0	1	3	248	0.00	30.144 
21:40	27.6	27.6	27.6	76	21.0	1	3	248	0.00	30.143 
21:45	27.6	27.6	27.6	76	21.0	1	6	248	0.00	30.144 
21:50	27.6	27.6	27.6	76	21.0	2	6	248	0.00	30.145 
21:55	27.6	27.6	27.6	75	20.7	2	9	248	0.00	30.142 
22:00	27.6	27.6	27.6	75	20.7	1	4	248	0.00	30.141 
22:05	27.8	27.8	27.8	76	21.2	1	2	248	0.00	30.134 
22:10	27.8	27.8	27.8	76	21.2	1	4	248	0.00	30.135 
22:15	27.8	27.8	27.8	76	21.2	1	3	248	0.00	30.134 
22:20	27.8	27.8	27.8	76	21.2	0	3	248	0.00	30.137 
22:25	27.8	27.8	27.8	76	21.2	0	3	248	0.00	30.140 
22:30	27.8	27.8	27.8	76	21.2	1	6	248	0.00	30.140 
22:35	27.6	27.6	27.6	76	21.0	1	4	248	0.00	30.136 
22:40	27.6	27.6	27.6	76	21.0	0	2	248	0.00	30.135 
22:45	27.6	27.6	27.6	76	21.0	1	5	248	0.00	30.139 
22:50	27.6	27.6	27.6	76	21.0	1	4	248	0.00	30.138 
22:55	27.5	27.5	27.5	76	20.9	1	4	248	0.00	30.138 
23:00	27.5	27.5	27.5	76	20.9	1	3	248	0.00	30.136 
23:05	27.5	27.5	27.5	77	21.3	1	4	248	0.00	30.137 
23:10	27.5	27.5	27.5	77	21.3	1	5	248	0.00	30.142 
23:15	27.5	27.5	27.5	77	21.3	1	3	248	0.00	30.135 
23:20	27.5	27.5	27.5	77	21.3	0	2	248	0.00	30.135 
23:25	27.5	27.5	27.5	77	21.3	0	1	248	0.00	30.133 
23:30	27.5	27.5	27.5	77	21.3	0	2	338	0.00	30.132 
23:35	27.5	27.5	27.5	77	21.3	0	3	270	0.00	30.131 
23:40	27.5	27.5	27.5	77	21.3	0	1	270	0.00	30.130 
23:45	27.5	27.5	27.5	77	21.3	0	1	270	0.00	30.130 
23:50	27.5	27.5	27.5	77	21.3	1	3	248	0.00	30.128 
23:55	27.5	27.5	27.5	77	21.3	0	2	248	0.00	30.129 

CoCoRaHS
IN-AL-39
A2 Web Hosting
Creative Commons License
GoDaddy
Look for:

loaded 2017-12-13 15:45:30 • last modified 2010-11-18 10:43:29
Privacy PolicyDisclaimer
• wx.awcolley.com is powered by PmWiki v.2002016 •
• all content (unless otherwise noted) © 2017 A W Colley